createdAt,value
2018-06-11T00:01:08.323Z,23.87
2018-06-11T00:03:35.278Z,28.33
2018-06-11T00:06:02.878Z,27.17
2018-06-11T00:08:29.835Z,29.63
2018-06-11T00:10:56.824Z,30.23
2018-06-11T00:13:23.764Z,24.03
2018-06-11T00:15:50.738Z,23.37
2018-06-11T00:18:17.694Z,23.00
2018-06-11T00:20:44.654Z,24.23
2018-06-11T00:23:11.582Z,23.13
2018-06-11T00:25:38.553Z,23.20
2018-06-11T00:28:05.484Z,24.93
2018-06-11T00:30:32.419Z,29.53
2018-06-11T00:32:59.373Z,27.43
2018-06-11T00:35:26.293Z,32.07
2018-06-11T00:37:53.248Z,28.27
2018-06-11T00:40:20.194Z,31.77
2018-06-11T00:42:47.488Z,26.63
2018-06-11T00:45:14.392Z,28.13
2018-06-11T00:47:41.337Z,31.30
2018-06-11T00:50:08.269Z,24.13
2018-06-11T00:52:35.272Z,27.73
2018-06-11T00:55:02.199Z,31.80
2018-06-11T00:57:29.133Z,24.13
2018-06-11T00:59:56.052Z,24.00
2018-06-11T01:02:22.996Z,28.67
2018-06-11T01:04:49.923Z,24.10
2018-06-11T01:07:16.876Z,32.00
2018-06-11T01:09:43.849Z,23.07
2018-06-11T01:12:10.781Z,25.33
2018-06-11T01:14:37.711Z,25.00
2018-06-11T01:17:04.690Z,29.07
2018-06-11T01:19:31.619Z,23.17
2018-06-11T01:21:58.555Z,24.50
2018-06-11T01:24:25.676Z,24.03
2018-06-11T01:26:52.616Z,27.30
2018-06-11T01:29:19.571Z,30.40
2018-06-11T01:31:46.529Z,22.73
2018-06-11T01:34:13.484Z,28.53
2018-06-11T01:36:40.415Z,26.87
2018-06-11T01:39:07.374Z,24.83
2018-06-11T01:41:34.665Z,25.67
2018-06-11T01:44:01.633Z,29.87
2018-06-11T01:46:28.582Z,30.23
2018-06-11T01:48:55.513Z,29.67
2018-06-11T01:51:22.449Z,27.37
2018-06-11T01:53:49.409Z,27.73
2018-06-11T01:56:16.344Z,29.67
2018-06-11T01:58:43.283Z,29.60
2018-06-11T02:01:10.241Z,26.60
2018-06-11T02:03:37.222Z,31.20
2018-06-11T02:06:04.204Z,28.43
2018-06-11T02:08:31.192Z,26.87
2018-06-11T02:10:58.111Z,27.60
2018-06-11T02:13:25.036Z,27.50
2018-06-11T02:15:52.000Z,29.47
2018-06-11T02:18:18.953Z,31.03
2018-06-11T02:20:45.920Z,31.77
2018-06-11T02:23:12.877Z,31.53
2018-06-11T02:25:39.845Z,32.70
2018-06-11T02:28:06.802Z,30.17
2018-06-11T02:30:33.747Z,37.77
2018-06-11T02:33:00.684Z,37.30
2018-06-11T02:35:27.628Z,33.40
2018-06-11T02:37:54.606Z,30.07
2018-06-11T02:40:21.548Z,29.47
2018-06-11T02:42:48.507Z,29.90
2018-06-11T02:45:15.474Z,32.00
2018-06-11T02:47:42.433Z,33.97
2018-06-11T02:50:09.363Z,40.47
2018-06-11T02:52:37.034Z,33.50
2018-06-11T02:55:04.064Z,34.63
2018-06-11T02:57:31.033Z,30.90
2018-06-11T02:59:57.987Z,34.00
2018-06-11T03:02:24.937Z,31.97
2018-06-11T03:04:51.868Z,38.37
2018-06-11T03:07:18.846Z,32.53
2018-06-11T03:09:45.798Z,30.80
2018-06-11T03:12:12.765Z,31.50
2018-06-11T03:14:39.710Z,34.70
2018-06-11T03:17:06.663Z,29.50
2018-06-11T03:19:33.686Z,27.00
2018-06-11T03:22:00.689Z,26.03
2018-06-11T03:24:27.632Z,29.70
2018-06-11T03:26:54.601Z,27.43
2018-06-11T03:29:21.582Z,30.23
2018-06-11T03:31:48.538Z,26.03
2018-06-11T03:34:15.521Z,29.10
2018-06-11T03:36:42.469Z,25.63
2018-06-11T03:39:09.405Z,29.23
2018-06-11T03:41:36.510Z,39.10
2018-06-11T03:44:03.482Z,28.63
2018-06-11T03:46:30.411Z,35.00
2018-06-11T03:48:57.378Z,30.40
2018-06-11T03:51:24.329Z,32.70
2018-06-11T03:53:51.303Z,29.10
2018-06-11T03:56:18.732Z,26.80
2018-06-11T03:58:45.686Z,26.37
2018-06-11T04:01:12.616Z,26.33
2018-06-11T04:03:39.576Z,32.17
2018-06-11T04:06:06.543Z,35.53
2018-06-11T04:08:33.468Z,31.23
2018-06-11T04:11:00.475Z,27.10
2018-06-11T04:13:27.386Z,34.40
2018-06-11T04:15:54.317Z,26.53
2018-06-11T04:18:21.293Z,35.70
2018-06-11T04:20:48.303Z,33.50
2018-06-11T04:23:15.259Z,31.80
2018-06-11T04:25:42.216Z,27.37
2018-06-11T04:28:09.242Z,28.60
2018-06-11T04:30:36.246Z,29.40
2018-06-11T04:33:03.198Z,31.10
2018-06-11T04:35:30.168Z,30.63
2018-06-11T04:37:57.106Z,33.23
2018-06-11T04:40:24.072Z,28.90
2018-06-11T04:42:51.070Z,31.60
2018-06-11T04:45:18.100Z,28.80
2018-06-11T04:47:44.981Z,29.90
2018-06-11T04:50:12.060Z,35.90
2018-06-11T04:52:39.061Z,25.83
2018-06-11T04:55:06.053Z,26.30
2018-06-11T04:57:32.976Z,25.63
2018-06-11T04:59:59.937Z,26.63
2018-06-11T05:02:26.934Z,29.20
2018-06-11T05:04:53.936Z,24.93
2018-06-11T05:07:20.905Z,28.83
2018-06-11T05:09:47.886Z,26.13
2018-06-11T05:12:14.865Z,39.47
2018-06-11T05:14:41.798Z,32.73
2018-06-11T05:17:08.794Z,28.00
2018-06-11T05:19:35.764Z,28.87
2018-06-11T05:22:02.732Z,26.53
2018-06-11T05:24:29.725Z,25.07
2018-06-11T05:26:56.788Z,27.13
2018-06-11T05:29:24.412Z,31.10
2018-06-11T05:31:51.352Z,28.23
2018-06-11T05:34:18.311Z,29.37
2018-06-11T05:36:45.280Z,35.30
2018-06-11T05:39:12.221Z,28.03
2018-06-11T05:41:39.224Z,27.57
2018-06-11T05:44:06.204Z,34.50
2018-06-11T05:46:33.154Z,30.40
2018-06-11T05:49:00.109Z,31.80
2018-06-11T05:51:27.167Z,34.27
2018-06-11T05:53:54.133Z,32.40
2018-06-11T05:56:21.092Z,32.00
2018-06-11T05:58:48.045Z,34.10
2018-06-11T06:01:14.963Z,36.30
2018-06-11T06:03:41.912Z,25.03
2018-06-11T06:06:08.886Z,30.73
2018-06-11T06:08:36.106Z,26.23
2018-06-11T06:11:03.216Z,26.77
2018-06-11T06:13:30.134Z,25.77
2018-06-11T06:15:57.064Z,26.07
2018-06-11T06:18:24.123Z,29.43
2018-06-11T06:20:51.071Z,30.83
2018-06-11T06:23:18.053Z,24.70
2018-06-11T06:25:45.049Z,28.60
2018-06-11T06:28:12.028Z,27.23
2018-06-11T06:30:38.944Z,25.70
2018-06-11T06:33:05.900Z,27.30
2018-06-11T06:35:32.825Z,27.83
2018-06-11T06:37:59.758Z,30.17
2018-06-11T06:40:26.730Z,27.47
2018-06-11T06:42:53.624Z,27.37
2018-06-11T06:45:20.537Z,30.00
2018-06-11T06:47:47.489Z,27.57
2018-06-11T06:50:14.425Z,27.40
2018-06-11T06:52:41.359Z,28.53
2018-06-11T06:55:08.310Z,30.43
2018-06-11T06:57:35.270Z,23.77
2018-06-11T07:00:02.210Z,33.20
2018-06-11T07:02:29.167Z,28.93
2018-06-11T07:04:56.098Z,26.93
2018-06-11T07:07:23.018Z,25.93
2018-06-11T07:09:49.970Z,28.30
2018-06-11T07:12:16.908Z,23.17
2018-06-11T07:14:43.859Z,23.43
2018-06-11T07:17:10.822Z,36.73
2018-06-11T07:19:37.752Z,27.93
2018-06-11T07:22:04.739Z,27.63
2018-06-11T07:24:31.692Z,27.00
2018-06-11T07:26:58.774Z,29.53
2018-06-11T07:29:25.739Z,31.60
2018-06-11T07:31:52.687Z,27.60
2018-06-11T07:34:19.616Z,43.93
2018-06-11T07:36:46.579Z,29.67
2018-06-11T07:39:13.547Z,35.00
2018-06-11T07:41:40.466Z,43.10
2018-06-11T07:44:07.444Z,42.73
2018-06-11T07:46:34.405Z,34.03
2018-06-11T07:49:01.324Z,29.00
2018-06-11T07:51:28.393Z,29.70
2018-06-11T07:53:55.335Z,25.23
2018-06-11T07:56:22.403Z,30.47
2018-06-11T07:58:49.365Z,27.30
2018-06-11T08:01:16.337Z,29.23
2018-06-11T08:03:43.250Z,24.57
2018-06-11T08:06:10.972Z,30.80
2018-06-11T08:08:37.893Z,22.97
2018-06-11T08:11:04.820Z,27.13
2018-06-11T08:13:31.809Z,22.37
2018-06-11T08:15:58.768Z,22.60
2018-06-11T08:18:25.699Z,27.30
2018-06-11T08:20:52.646Z,19.17
2018-06-11T08:23:19.535Z,21.77
2018-06-11T08:25:46.480Z,22.23
2018-06-11T08:28:13.399Z,17.47
2018-06-11T08:30:40.343Z,27.53
2018-06-11T08:33:07.256Z,19.87
2018-06-11T08:35:34.180Z,18.73
2018-06-11T08:38:01.095Z,20.47
2018-06-11T08:40:28.008Z,16.40
2018-06-11T08:42:54.949Z,19.07
2018-06-11T08:45:21.880Z,16.60
2018-06-11T08:47:48.798Z,18.43
2018-06-11T08:50:15.732Z,17.90
2018-06-11T08:52:42.658Z,18.47
2018-06-11T08:55:09.572Z,19.53
2018-06-11T08:57:36.501Z,18.47
2018-06-11T09:00:04.569Z,18.27
2018-06-11T09:02:31.444Z,23.23
2018-06-11T09:04:58.416Z,18.63
2018-06-11T09:07:25.459Z,16.43
2018-06-11T09:09:52.471Z,20.90
2018-06-11T09:12:19.508Z,15.33
2018-06-11T09:14:46.523Z,13.40
2018-06-11T09:17:13.412Z,18.30
2018-06-11T09:19:40.327Z,15.80
2018-06-11T09:22:07.245Z,16.73
2018-06-11T09:24:34.169Z,20.03
2018-06-11T09:27:01.133Z,13.73
2018-06-11T09:29:28.071Z,13.97
2018-06-11T09:31:55.004Z,15.07
2018-06-11T09:34:21.960Z,22.60
2018-06-11T09:36:48.888Z,15.23
2018-06-11T09:39:15.796Z,13.53
2018-06-11T09:41:42.729Z,17.13
2018-06-11T09:44:09.695Z,12.87
2018-06-11T09:46:36.625Z,13.23
2018-06-11T09:49:03.620Z,21.47
2018-06-11T09:51:30.544Z,14.87
2018-06-11T09:53:57.541Z,9.50
2018-06-11T09:56:24.571Z,10.30
2018-06-11T09:58:51.542Z,10.77
2018-06-11T10:01:18.456Z,14.67
2018-06-11T10:03:45.418Z,10.03
2018-06-11T10:06:12.332Z,11.70
2018-06-11T10:08:39.251Z,11.10
2018-06-11T10:11:06.193Z,15.30
2018-06-11T10:13:33.174Z,12.23
2018-06-11T10:16:00.075Z,9.20
2018-06-11T10:18:27.132Z,15.50
2018-06-11T10:20:54.084Z,7.80
2018-06-11T10:23:20.994Z,7.90
2018-06-11T10:25:48.092Z,10.13
2018-06-11T10:28:15.152Z,6.30
2018-06-11T10:30:42.171Z,10.47
2018-06-11T10:33:09.155Z,7.57
2018-06-11T10:35:36.069Z,9.70
2018-06-11T10:38:03.033Z,8.60
2018-06-11T10:40:29.968Z,5.97
2018-06-11T10:42:56.900Z,6.43
2018-06-11T10:45:23.836Z,6.70
2018-06-11T10:47:50.875Z,6.43
2018-06-11T10:50:18.435Z,9.60
2018-06-11T10:52:45.460Z,10.83
2018-06-11T10:55:12.495Z,7.37
2018-06-11T10:57:39.402Z,9.77
2018-06-11T11:00:06.310Z,7.27
2018-06-11T11:02:33.261Z,7.50
2018-06-11T11:05:00.180Z,6.30
2018-06-11T11:07:27.109Z,7.93
2018-06-11T11:09:54.033Z,7.07
2018-06-11T11:12:20.955Z,7.13
2018-06-11T11:14:47.987Z,7.07
2018-06-11T11:17:15.012Z,10.40
2018-06-11T11:19:42.033Z,9.37
2018-06-11T11:22:09.051Z,12.20
2018-06-11T11:24:36.079Z,11.47
2018-06-11T11:27:03.144Z,7.00
2018-06-11T11:29:30.202Z,6.50
2018-06-11T11:31:57.217Z,6.30
2018-06-11T11:34:24.224Z,6.33
2018-06-11T11:36:51.264Z,8.90
2018-06-11T11:39:18.304Z,6.43
2018-06-11T11:41:45.363Z,5.57
2018-06-11T11:44:12.376Z,7.53
2018-06-11T11:46:39.418Z,4.70
2018-06-11T11:49:06.452Z,5.70
2018-06-11T11:51:33.463Z,6.70
2018-06-11T11:54:00.504Z,6.10
2018-06-11T11:56:27.515Z,5.70
2018-06-11T11:58:54.533Z,5.00
2018-06-11T12:01:21.575Z,5.43
2018-06-11T12:03:48.621Z,5.40
2018-06-11T12:06:15.627Z,14.70
2018-06-11T12:08:42.668Z,8.23
2018-06-11T12:11:09.703Z,7.53
2018-06-11T12:13:36.720Z,7.03
2018-06-11T12:16:03.753Z,5.60
2018-06-11T12:18:30.762Z,6.93
2018-06-11T12:20:57.788Z,9.03
2018-06-11T12:23:24.811Z,4.57
2018-06-11T12:25:51.834Z,5.17
2018-06-11T12:28:18.868Z,12.03
2018-06-11T12:30:45.918Z,4.10
2018-06-11T12:33:12.973Z,4.57
2018-06-11T12:35:40.036Z,4.80
2018-06-11T12:38:07.071Z,8.10
2018-06-11T12:40:34.088Z,4.10
2018-06-11T12:43:01.086Z,4.07
2018-06-11T12:45:28.119Z,4.43
2018-06-11T12:47:55.131Z,3.70
2018-06-11T12:50:22.176Z,15.03
2018-06-11T12:52:49.305Z,5.17
2018-06-11T12:55:16.292Z,6.03
2018-06-11T12:57:43.314Z,8.27
2018-06-11T13:00:10.355Z,5.60
2018-06-11T13:02:37.372Z,4.93
2018-06-11T13:05:04.420Z,6.43
2018-06-11T13:07:31.523Z,5.77
2018-06-11T13:09:58.855Z,7.33
2018-06-11T13:12:25.890Z,4.70
2018-06-11T13:14:52.939Z,4.63
2018-06-11T13:17:19.950Z,5.73
2018-06-11T13:19:47.003Z,4.43
2018-06-11T13:22:14.061Z,6.17
2018-06-11T13:24:41.075Z,3.83
2018-06-11T13:27:08.106Z,3.60
2018-06-11T13:29:35.139Z,7.20
2018-06-11T13:32:02.152Z,7.50
2018-06-11T13:34:29.220Z,3.57
2018-06-11T13:36:56.247Z,4.23
2018-06-11T13:39:23.367Z,7.90
2018-06-11T13:41:50.386Z,6.63
2018-06-11T13:44:17.421Z,5.83
2018-06-11T13:46:44.463Z,3.90
2018-06-11T13:49:11.503Z,5.50
2018-06-11T13:51:38.556Z,6.00
2018-06-11T13:54:05.572Z,8.57
2018-06-11T13:56:32.588Z,4.70
2018-06-11T13:58:59.635Z,14.10
2018-06-11T14:01:26.655Z,7.77
2018-06-11T14:03:53.674Z,8.20
2018-06-11T14:06:20.693Z,8.20
2018-06-11T14:08:47.723Z,6.93
2018-06-11T14:11:14.752Z,7.20
2018-06-11T14:13:41.857Z,10.37
2018-06-11T14:16:08.950Z,3.33
2018-06-11T14:18:36.080Z,4.27
2018-06-11T14:21:03.152Z,5.63
2018-06-11T14:23:30.177Z,4.00
2018-06-11T14:25:57.198Z,3.63
2018-06-11T14:28:24.267Z,4.17
2018-06-11T14:30:51.278Z,3.30
2018-06-11T14:33:18.355Z,9.53
2018-06-11T14:35:45.598Z,8.77
2018-06-11T14:38:12.636Z,5.30
2018-06-11T14:40:39.658Z,3.40
2018-06-11T14:43:06.786Z,6.70
2018-06-11T14:45:34.290Z,4.97
2018-06-11T14:48:01.322Z,4.10
2018-06-11T14:50:28.363Z,4.17
2018-06-11T14:52:55.381Z,8.47
2018-06-11T14:55:22.406Z,4.97
2018-06-11T14:57:49.446Z,8.73
2018-06-11T15:00:16.472Z,6.53
2018-06-11T15:02:43.506Z,5.37
2018-06-11T15:05:10.559Z,4.20
2018-06-11T15:07:37.659Z,4.67
2018-06-11T15:10:04.698Z,5.93
2018-06-11T15:12:31.730Z,5.70
2018-06-11T15:14:58.746Z,3.83
2018-06-11T15:17:25.884Z,5.53
2018-06-11T15:19:52.914Z,4.47
2018-06-11T15:22:19.927Z,5.60
2018-06-11T15:24:46.958Z,4.93
2018-06-11T15:27:14.020Z,4.67
2018-06-11T15:29:41.101Z,5.13
2018-06-11T15:32:08.115Z,4.40
2018-06-11T15:34:35.159Z,7.73
2018-06-11T15:37:02.196Z,7.00
2018-06-11T15:39:29.242Z,5.80
2018-06-11T15:41:56.308Z,6.07
2018-06-11T15:44:23.331Z,6.33
2018-06-11T15:46:50.336Z,7.40
2018-06-11T15:49:17.384Z,4.20
2018-06-11T15:51:44.400Z,12.27
2018-06-11T15:54:11.435Z,3.87
2018-06-11T15:56:38.505Z,3.53
2018-06-11T15:59:05.531Z,4.63
2018-06-11T16:01:32.551Z,7.63
2018-06-11T16:03:59.926Z,4.80
2018-06-11T16:06:27.020Z,4.17
2018-06-11T16:08:54.086Z,7.03
2018-06-11T16:11:21.241Z,5.60
2018-06-11T16:13:48.283Z,5.60
2018-06-11T16:16:15.319Z,4.97
2018-06-11T16:18:42.378Z,5.70
2018-06-11T16:21:09.496Z,5.03
2018-06-11T16:23:36.430Z,5.40
2018-06-11T16:26:03.629Z,10.00
2018-06-11T16:28:30.575Z,15.80
2018-06-11T16:30:57.542Z,23.97
2018-06-11T16:33:24.494Z,8.50
2018-06-11T16:35:51.456Z,5.30
2018-06-11T16:38:18.397Z,9.37
2018-06-11T16:40:45.568Z,4.73
2018-06-11T16:43:12.495Z,4.90
2018-06-11T16:45:39.455Z,11.43
2018-06-11T16:48:06.453Z,10.63
2018-06-11T16:50:33.392Z,5.40
2018-06-11T16:53:00.332Z,9.63
2018-06-11T16:55:27.298Z,20.67
2018-06-11T16:57:54.227Z,15.90
2018-06-11T17:00:21.148Z,18.03
2018-06-11T17:02:48.111Z,10.33
2018-06-11T17:05:15.038Z,12.60
2018-06-11T17:07:41.976Z,7.80
2018-06-11T17:10:08.919Z,11.73
2018-06-11T17:12:35.845Z,15.27
2018-06-11T17:15:02.925Z,9.47
2018-06-11T17:17:29.858Z,17.20
2018-06-11T17:19:56.807Z,23.93
2018-06-11T17:22:23.711Z,11.17
2018-06-11T17:24:50.644Z,17.07
2018-06-11T17:27:17.556Z,11.50
2018-06-11T17:29:44.473Z,10.90
2018-06-11T17:32:11.450Z,19.70
2018-06-11T17:34:38.415Z,10.93
2018-06-11T17:37:05.325Z,9.40
2018-06-11T17:39:32.255Z,15.70
2018-06-11T17:41:59.352Z,13.27
2018-06-11T17:44:26.261Z,10.70
2018-06-11T17:46:53.218Z,14.57
2018-06-11T17:49:20.149Z,10.90
2018-06-11T17:51:47.073Z,9.23
2018-06-11T17:54:14.088Z,9.50
2018-06-11T17:56:40.976Z,8.53
2018-06-11T17:59:08.114Z,9.13
2018-06-11T18:01:35.123Z,13.83
2018-06-11T18:04:02.055Z,11.97
2018-06-11T18:06:29.001Z,13.70
2018-06-11T18:08:55.951Z,11.10
2018-06-11T18:11:22.899Z,9.90
2018-06-11T18:13:49.847Z,8.43
2018-06-11T18:16:16.820Z,10.63
2018-06-11T18:18:43.763Z,10.83
2018-06-11T18:21:10.697Z,12.30
2018-06-11T18:23:37.865Z,8.83
2018-06-11T18:26:04.821Z,11.77
2018-06-11T18:28:31.782Z,14.53
2018-06-11T18:30:58.868Z,10.37
2018-06-11T18:33:25.817Z,9.13
2018-06-11T18:35:52.773Z,12.47
2018-06-11T18:38:19.733Z,15.30
2018-06-11T18:40:46.668Z,10.70
2018-06-11T18:43:13.619Z,13.10
2018-06-11T18:45:40.573Z,15.20
2018-06-11T18:48:07.519Z,21.13
2018-06-11T18:50:34.461Z,13.70
2018-06-11T18:53:01.407Z,14.53
2018-06-11T18:55:28.348Z,10.70
2018-06-11T18:57:55.289Z,14.33
2018-06-11T19:00:22.331Z,9.70
2018-06-11T19:02:49.275Z,22.07
2018-06-11T19:05:16.216Z,11.07
2018-06-11T19:07:43.159Z,13.87
2018-06-11T19:10:10.084Z,11.03
2018-06-11T19:12:37.034Z,16.00
2018-06-11T19:15:04.041Z,19.77
2018-06-11T19:17:31.213Z,15.90
2018-06-11T19:19:58.334Z,12.80
2018-06-11T19:22:25.335Z,18.13
2018-06-11T19:24:52.914Z,18.97
2018-06-11T19:27:19.876Z,19.37
2018-06-11T19:29:46.913Z,15.10
2018-06-11T19:32:13.845Z,14.97
2018-06-11T19:34:40.778Z,20.77
2018-06-11T19:37:07.751Z,28.60
2018-06-11T19:39:34.706Z,19.50
2018-06-11T19:42:01.638Z,16.80
2018-06-11T19:44:28.596Z,31.93
2018-06-11T19:46:55.543Z,12.20
2018-06-11T19:49:22.452Z,19.87
2018-06-11T19:51:49.441Z,67.63
2018-06-11T19:54:16.432Z,208.53
2018-06-11T19:56:43.356Z,302.37
2018-06-11T19:59:10.307Z,153.60
2018-06-11T20:01:37.253Z,43.03
2018-06-11T20:04:04.224Z,124.30
2018-06-11T20:06:31.184Z,64.17
2018-06-11T20:08:58.142Z,48.30
2018-06-11T20:11:25.163Z,21.23
2018-06-11T20:13:52.151Z,22.60
2018-06-11T20:16:19.085Z,18.13
2018-06-11T20:18:46.093Z,14.23
2018-06-11T20:21:13.155Z,14.30
2018-06-11T20:23:40.181Z,11.93
2018-06-11T20:26:07.182Z,13.33
2018-06-11T20:28:34.377Z,11.13
2018-06-11T20:31:01.368Z,11.73
2018-06-11T20:33:28.476Z,9.53
2018-06-11T20:35:55.494Z,10.57
2018-06-11T20:38:22.460Z,25.63
2018-06-11T20:40:50.338Z,11.20
2018-06-11T20:43:17.410Z,10.30
2018-06-11T20:45:44.439Z,12.90
2018-06-11T20:48:11.390Z,11.77
2018-06-11T20:50:38.349Z,8.90
2018-06-11T20:53:05.376Z,10.07
2018-06-11T20:55:32.357Z,11.13
2018-06-11T20:57:59.405Z,10.57
2018-06-11T21:00:26.340Z,7.90
2018-06-11T21:02:53.305Z,8.93
2018-06-11T21:05:20.291Z,11.73
2018-06-11T21:07:47.261Z,9.73
2018-06-11T21:10:14.217Z,14.30
2018-06-11T21:12:41.190Z,11.10
2018-06-11T21:15:08.197Z,13.93
2018-06-11T21:17:35.140Z,9.07
2018-06-11T21:20:02.127Z,10.13
2018-06-11T21:22:29.157Z,11.03
2018-06-11T21:24:56.141Z,10.10
2018-06-11T21:27:23.152Z,13.90
2018-06-11T21:29:50.136Z,9.83
2018-06-11T21:32:17.104Z,12.23
2018-06-11T21:34:44.148Z,15.00
2018-06-11T21:37:11.154Z,9.57
2018-06-11T21:39:38.140Z,11.80
2018-06-11T21:42:05.146Z,8.83
2018-06-11T21:44:32.120Z,9.77
2018-06-11T21:46:59.091Z,16.70
2018-06-11T21:49:26.138Z,10.03
2018-06-11T21:51:53.099Z,10.67
2018-06-11T21:54:20.122Z,16.53
2018-06-11T21:56:47.174Z,11.73
2018-06-11T21:59:14.194Z,14.90
2018-06-11T22:01:41.210Z,17.80
2018-06-11T22:04:08.313Z,9.47
2018-06-11T22:06:35.308Z,11.10
2018-06-11T22:09:02.404Z,8.57
2018-06-11T22:11:29.428Z,9.23
2018-06-11T22:13:56.433Z,9.37
2018-06-11T22:16:23.489Z,11.07
2018-06-11T22:18:50.485Z,10.37
2018-06-11T22:21:17.478Z,7.70
2018-06-11T22:23:44.416Z,15.47
2018-06-11T22:26:18.304Z,10.80
2018-06-11T22:28:45.413Z,15.47
2018-06-11T22:31:12.419Z,9.03
2018-06-11T22:33:39.519Z,9.90
2018-06-11T22:36:06.557Z,12.97
2018-06-11T22:38:33.522Z,9.13
2018-06-11T22:41:00.560Z,11.90
2018-06-11T22:43:27.600Z,14.77
2018-06-11T22:45:54.639Z,11.47
2018-06-11T22:48:21.612Z,15.87
2018-06-11T22:50:48.603Z,13.10
2018-06-11T22:53:15.619Z,9.83
2018-06-11T22:55:42.626Z,8.80
2018-06-11T22:58:09.581Z,8.67
2018-06-11T23:00:36.564Z,10.00
2018-06-11T23:03:03.593Z,7.90
2018-06-11T23:05:30.591Z,15.53
2018-06-11T23:07:57.634Z,11.13
2018-06-11T23:10:24.648Z,10.10
2018-06-11T23:12:51.603Z,10.03
2018-06-11T23:15:18.611Z,12.60
2018-06-11T23:17:45.594Z,9.00
2018-06-11T23:20:12.640Z,10.10
2018-06-11T23:22:40.049Z,10.20
2018-06-11T23:25:07.047Z,17.80
2018-06-11T23:27:34.069Z,8.40
2018-06-11T23:30:01.050Z,7.77
2018-06-11T23:32:28.468Z,11.03
2018-06-11T23:34:55.440Z,12.67
2018-06-11T23:37:22.455Z,9.97
2018-06-11T23:39:49.492Z,10.87
2018-06-11T23:42:16.517Z,9.90
2018-06-11T23:44:43.538Z,12.20
2018-06-11T23:47:10.566Z,10.97
2018-06-11T23:49:37.592Z,11.77
2018-06-11T23:52:04.624Z,9.10
2018-06-11T23:54:31.697Z,9.77
2018-06-11T23:56:58.728Z,9.37
2018-06-11T23:59:25.676Z,12.07
